createdAt,value
2019-02-17T00:01:45.334Z,99.90
2019-02-17T00:04:14.014Z,99.90
2019-02-17T00:06:42.674Z,99.90
2019-02-17T00:09:11.531Z,99.90
2019-02-17T00:11:40.200Z,99.90
2019-02-17T00:14:08.863Z,99.90
2019-02-17T00:16:37.519Z,99.90
2019-02-17T00:19:06.179Z,99.90
2019-02-17T00:21:34.756Z,99.90
2019-02-17T00:24:03.486Z,99.90
2019-02-17T00:26:32.136Z,99.90
2019-02-17T00:29:00.719Z,99.90
2019-02-17T00:31:29.300Z,99.90
2019-02-17T00:33:57.965Z,99.90
2019-02-17T00:44:27.195Z,99.90
2019-02-17T00:46:55.747Z,99.90
2019-02-17T00:49:24.328Z,99.90
2019-02-17T00:51:52.889Z,99.90
2019-02-17T00:54:21.481Z,99.90
2019-02-17T00:56:50.072Z,99.90
2019-02-17T00:59:18.670Z,99.90
2019-02-17T01:01:47.231Z,99.90
2019-02-17T01:04:15.818Z,99.90
2019-02-17T01:06:44.399Z,99.90
2019-02-17T01:09:13.086Z,99.90
2019-02-17T01:11:41.682Z,99.90
2019-02-17T01:14:10.470Z,99.90
2019-02-17T01:16:39.056Z,99.90
2019-02-17T01:19:07.732Z,99.90
2019-02-17T01:21:36.307Z,99.90
2019-02-17T01:24:05.093Z,99.90
2019-02-17T01:26:33.705Z,99.90
2019-02-17T01:29:02.350Z,99.90
2019-02-17T01:31:31.040Z,99.90
2019-02-17T01:34:02.736Z,99.90
2019-02-17T01:36:31.307Z,99.90
2019-02-17T01:38:59.891Z,99.90
2019-02-17T01:41:28.519Z,99.90
2019-02-17T01:43:57.142Z,99.90
2019-02-17T01:46:25.710Z,99.90
2019-02-17T01:48:54.424Z,99.90
2019-02-17T01:59:17.682Z,99.90
2019-02-17T02:01:46.306Z,99.90
2019-02-17T02:04:15.005Z,99.90
2019-02-17T02:06:43.749Z,99.90
2019-02-17T02:09:12.415Z,99.90
2019-02-17T02:11:41.105Z,99.90
2019-02-17T02:14:09.666Z,99.90
2019-02-17T02:16:38.340Z,99.90
2019-02-17T02:19:06.919Z,99.90
2019-02-17T02:21:35.507Z,99.90
2019-02-17T02:24:04.161Z,99.90
2019-02-17T02:26:32.929Z,99.90
2019-02-17T02:29:01.521Z,99.90
2019-02-17T02:31:30.163Z,99.90
2019-02-17T02:33:58.804Z,99.90
2019-02-17T02:36:27.438Z,99.90
2019-02-17T02:38:56.020Z,99.90
2019-02-17T02:41:34.203Z,99.90
2019-02-17T02:43:54.963Z,99.90
2019-02-17T05:41:50.138Z,99.90
2019-02-17T05:44:29.171Z,99.90
2019-02-17T05:46:57.986Z,99.90
2019-02-17T05:49:26.628Z,99.90
2019-02-17T05:51:58.483Z,99.90
2019-02-17T05:54:27.108Z,99.90
2019-02-17T05:56:55.752Z,99.90
2019-02-17T05:59:25.936Z,99.90
2019-02-17T06:05:09.662Z,99.90
2019-02-17T06:23:46.853Z,99.90
2019-02-17T06:26:24.729Z,99.90
2019-02-17T06:29:06.747Z,99.90
2019-02-17T06:34:34.498Z,99.90
2019-02-17T06:40:14.584Z,99.90
2019-02-17T06:43:04.148Z,99.90
2019-02-17T07:20:47.760Z,99.90
2019-02-17T07:23:16.554Z,99.90
2019-02-17T07:25:45.450Z,99.90
2019-02-17T07:28:18.486Z,99.90
2019-02-17T07:30:55.045Z,99.90
2019-02-17T07:33:26.019Z,99.90
2019-02-17T07:35:54.999Z,99.90
2019-02-17T07:38:27.130Z,99.90
2019-02-17T07:40:57.749Z,99.90
2019-02-17T09:11:15.728Z,99.90
2019-02-17T09:13:35.546Z,99.90
2019-02-17T09:16:04.294Z,99.90
2019-02-17T09:18:32.850Z,99.90
2019-02-17T09:21:01.587Z,99.90
2019-02-17T09:23:30.163Z,99.90
2019-02-17T09:26:04.313Z,99.90
2019-02-17T09:29:24.663Z,99.90
2019-02-17T09:32:02.614Z,99.90
2019-02-17T09:34:30.870Z,99.90
2019-02-17T09:36:59.574Z,99.90
2019-02-17T09:39:28.248Z,99.90
2019-02-17T09:41:57.255Z,99.90
2019-02-17T09:44:25.887Z,99.90
2019-02-17T09:46:54.606Z,99.90
2019-02-17T09:49:23.213Z,99.90
2019-02-17T09:51:52.948Z,99.90
2019-02-17T09:54:21.507Z,99.90
2019-02-17T09:56:50.113Z,99.90
2019-02-17T09:59:18.694Z,99.90
2019-02-17T10:01:47.293Z,99.90
2019-02-17T10:04:15.871Z,99.90
2019-02-17T10:06:44.441Z,99.90
2019-02-17T10:09:12.921Z,99.90
2019-02-17T10:11:41.557Z,99.90
2019-02-17T10:14:10.122Z,99.90
2019-02-17T10:16:38.758Z,99.90
2019-02-17T10:19:07.353Z,99.90
2019-02-17T10:21:35.935Z,99.90
2019-02-17T10:24:04.530Z,99.90
2019-02-17T10:26:33.226Z,99.90
2019-02-17T10:29:01.821Z,99.90
2019-02-17T10:31:30.366Z,99.90
2019-02-17T10:33:58.971Z,99.90
2019-02-17T10:36:27.443Z,99.90
2019-02-17T10:38:56.011Z,99.90
2019-02-17T10:41:24.546Z,99.90
2019-02-17T10:43:53.122Z,99.90
2019-02-17T10:46:21.665Z,99.90
2019-02-17T10:48:50.172Z,99.90
2019-02-17T10:51:18.661Z,99.90
2019-02-17T10:53:47.234Z,95.30
2019-02-17T10:56:15.787Z,88.30
2019-02-17T10:58:44.374Z,95.70
2019-02-17T11:01:12.913Z,93.60
2019-02-17T11:03:44.502Z,88.20
2019-02-17T11:06:13.023Z,91.50
2019-02-17T11:08:41.593Z,77.80
2019-02-17T11:11:10.138Z,80.50
2019-02-17T11:13:38.734Z,89.90
2019-02-17T11:16:07.290Z,84.50
2019-02-17T11:18:35.860Z,82.00
2019-02-17T11:21:04.329Z,83.20
2019-02-17T11:23:32.905Z,79.20
2019-02-17T11:26:01.369Z,73.60
2019-02-17T11:28:29.933Z,79.60
2019-02-17T11:30:58.487Z,73.70
2019-02-17T11:33:27.056Z,63.40
2019-02-17T11:35:55.574Z,72.10
2019-02-17T11:38:24.153Z,71.40
2019-02-17T11:40:52.767Z,73.60
2019-02-17T11:43:21.417Z,70.90
2019-02-17T11:45:50.035Z,73.20
2019-02-17T11:48:18.580Z,66.50
2019-02-17T11:50:47.162Z,67.90
2019-02-17T11:53:15.709Z,65.80
2019-02-17T11:55:44.276Z,62.90
2019-02-17T11:58:12.742Z,61.20
2019-02-17T12:00:41.319Z,62.10
2019-02-17T12:03:09.877Z,58.50
2019-02-17T12:05:38.452Z,58.30
2019-02-17T12:08:07.000Z,59.10
2019-02-17T12:10:35.574Z,55.70
2019-02-17T12:13:04.123Z,56.60
2019-02-17T12:15:32.783Z,60.10
2019-02-17T12:18:01.339Z,57.20
2019-02-17T12:20:46.663Z,58.80
2019-02-17T12:23:19.822Z,58.20
2019-02-17T12:26:05.830Z,59.30
2019-02-17T12:28:48.016Z,59.70
2019-02-17T12:31:18.247Z,58.70
2019-02-17T12:33:46.797Z,55.50
2019-02-17T12:36:15.365Z,56.30
2019-02-17T12:38:43.913Z,54.40
2019-02-17T12:41:12.485Z,55.40
2019-02-17T12:43:41.026Z,54.20
2019-02-17T12:46:09.529Z,55.80
2019-02-17T12:48:39.759Z,57.10
2019-02-17T12:51:08.447Z,53.40
2019-02-17T12:53:36.994Z,53.80
2019-02-17T12:56:05.494Z,52.80
2019-02-17T12:58:34.106Z,52.60
2019-02-17T13:01:02.681Z,54.10
2019-02-17T13:03:31.217Z,54.10
2019-02-17T13:05:59.797Z,53.10
2019-02-17T13:08:28.342Z,51.80
2019-02-17T13:10:56.915Z,52.20
2019-02-17T13:13:25.458Z,51.50
2019-02-17T13:15:53.958Z,49.00
2019-02-17T13:18:22.505Z,49.10
2019-02-17T13:20:51.093Z,49.70
2019-02-17T13:23:19.641Z,51.10
2019-02-17T13:25:48.214Z,51.90
2019-02-17T13:28:16.766Z,51.70
2019-02-17T13:30:45.410Z,49.40
2019-02-17T13:33:13.960Z,50.00
2019-02-17T13:35:42.534Z,51.20
2019-02-17T13:38:11.186Z,51.40
2019-02-17T13:40:39.717Z,52.10
2019-02-17T13:43:08.196Z,49.80
2019-02-17T13:45:36.777Z,50.60
2019-02-17T13:48:05.327Z,50.60
2019-02-17T13:50:33.937Z,50.30
2019-02-17T13:53:11.312Z,49.90
2019-02-17T13:55:32.607Z,48.60
2019-02-17T13:58:01.183Z,48.80
2019-02-17T14:00:29.725Z,49.20
2019-02-17T14:02:58.313Z,48.80
2019-02-17T14:05:26.853Z,48.20
2019-02-17T14:07:55.422Z,47.70
2019-02-17T14:10:23.960Z,47.90
2019-02-17T14:12:52.459Z,48.60
2019-02-17T14:15:21.198Z,46.70
2019-02-17T14:17:49.769Z,45.60
2019-02-17T14:20:18.302Z,47.40
2019-02-17T14:22:47.062Z,45.50
2019-02-17T14:25:15.623Z,44.30
2019-02-17T14:27:44.270Z,44.80
2019-02-17T14:30:14.560Z,44.10
2019-02-17T14:32:43.210Z,42.70
2019-02-17T14:35:12.088Z,43.50
2019-02-17T14:37:40.596Z,42.70
2019-02-17T14:40:10.874Z,42.30
2019-02-17T14:42:39.450Z,43.00
2019-02-17T14:45:11.074Z,44.00
2019-02-17T14:47:39.647Z,43.40
2019-02-17T14:50:09.334Z,44.40
2019-02-17T14:52:37.842Z,43.00
2019-02-17T14:55:10.661Z,42.00
2019-02-17T14:57:39.233Z,42.70
2019-02-17T15:00:10.859Z,43.00
2019-02-17T15:02:39.598Z,45.80
2019-02-17T15:05:09.517Z,48.10
2019-02-17T15:07:38.058Z,49.90
2019-02-17T15:10:09.067Z,51.90
2019-02-17T15:12:37.580Z,52.80
2019-02-17T15:15:11.447Z,53.20
2019-02-17T15:17:39.993Z,55.60
2019-02-17T15:20:13.420Z,56.70
2019-02-17T15:22:41.986Z,55.80
2019-02-17T15:25:11.693Z,56.60
2019-02-17T15:27:40.384Z,56.10
2019-02-17T15:30:11.662Z,57.30
2019-02-17T15:32:40.209Z,56.70
2019-02-17T15:35:08.778Z,57.40
2019-02-17T15:37:37.323Z,57.80
2019-02-17T15:40:11.409Z,57.30
2019-02-17T15:42:40.036Z,58.00
2019-02-17T15:45:10.761Z,58.20
2019-02-17T15:47:39.374Z,60.20
2019-02-17T15:50:09.985Z,58.90
2019-02-17T15:52:38.533Z,59.50
2019-02-17T15:55:09.463Z,64.80
2019-02-17T15:57:38.006Z,60.10
2019-02-17T16:00:12.210Z,60.40
2019-02-17T16:02:40.757Z,61.50
2019-02-17T16:05:12.250Z,62.10
2019-02-17T16:07:40.800Z,66.20
2019-02-17T16:10:11.310Z,66.40
2019-02-17T16:12:39.861Z,64.80
2019-02-17T16:15:14.413Z,65.80
2019-02-17T16:17:46.790Z,69.40
2019-02-17T16:20:15.710Z,71.70
2019-02-17T16:22:44.269Z,73.80
2019-02-17T16:25:13.182Z,77.70
2019-02-17T16:27:41.721Z,90.00
2019-02-17T16:30:15.362Z,89.70
2019-02-17T16:32:43.977Z,91.80
2019-02-17T16:35:12.623Z,93.10
2019-02-17T16:37:43.663Z,95.80
2019-02-17T16:40:14.171Z,97.70
2019-02-17T16:42:42.724Z,99.50
2019-02-17T16:45:12.743Z,99.90
2019-02-17T16:47:41.528Z,99.90
2019-02-17T16:50:15.837Z,99.90
2019-02-17T16:52:44.474Z,99.90
2019-02-17T16:55:13.298Z,99.90
2019-02-17T16:57:41.919Z,99.90
2019-02-17T17:00:15.246Z,99.90
2019-02-17T17:02:43.938Z,99.90
2019-02-17T17:05:12.654Z,99.90
2019-02-17T17:07:41.206Z,99.90
2019-02-17T17:10:10.596Z,99.90
2019-02-17T17:12:39.172Z,99.90
2019-02-17T17:15:08.402Z,99.90
2019-02-17T17:17:36.974Z,99.90
2019-02-17T17:20:08.654Z,99.90
2019-02-17T17:22:37.310Z,99.90
2019-02-17T17:25:08.898Z,99.90
2019-02-17T17:27:37.637Z,99.90
2019-02-17T17:30:09.126Z,99.90
2019-02-17T17:32:37.692Z,99.90
2019-02-17T17:35:08.578Z,99.90
2019-02-17T17:37:37.346Z,99.90
2019-02-17T17:40:09.011Z,99.90
2019-02-17T17:42:37.594Z,99.90
2019-02-17T17:45:11.614Z,99.90
2019-02-17T17:47:40.210Z,99.90
2019-02-17T17:50:11.199Z,99.90
2019-02-17T17:52:39.851Z,99.90
2019-02-17T17:55:10.133Z,99.90
2019-02-17T17:57:38.718Z,99.90
2019-02-17T18:00:16.589Z,99.90
2019-02-17T18:02:45.297Z,99.90
2019-02-17T18:05:14.191Z,99.90
2019-02-17T18:07:42.757Z,99.90
2019-02-17T18:10:17.629Z,99.90
2019-02-17T18:12:46.200Z,99.90
2019-02-17T18:15:19.126Z,99.90
2019-02-17T18:17:54.680Z,99.90
2019-02-17T18:20:17.914Z,99.90
2019-02-17T18:22:46.497Z,99.90
2019-02-17T18:25:15.370Z,99.90
2019-02-17T18:27:44.013Z,99.90
2019-02-17T18:30:20.146Z,99.90
2019-02-17T18:32:48.722Z,99.90
2019-02-17T18:35:20.377Z,99.90
2019-02-17T18:37:47.598Z,99.90
2019-02-17T18:40:17.683Z,99.90
2019-02-17T18:42:46.266Z,99.90
2019-02-17T18:45:15.738Z,99.90
2019-02-17T18:47:44.325Z,99.90
2019-02-17T18:50:17.775Z,99.90
2019-02-17T18:52:46.348Z,99.90
2019-02-17T18:55:15.240Z,99.90
2019-02-17T18:57:50.327Z,99.90
2019-02-17T19:00:23.387Z,99.90
2019-02-17T19:02:51.964Z,99.90
2019-02-17T19:05:31.144Z,99.90
2019-02-17T19:07:50.855Z,99.90
2019-02-17T19:10:19.465Z,99.90
2019-02-17T19:12:48.102Z,99.90
2019-02-17T19:15:19.154Z,99.90
2019-02-17T19:17:47.799Z,99.90
2019-02-17T19:20:19.243Z,99.90
2019-02-17T19:22:47.815Z,99.90
2019-02-17T19:25:16.365Z,99.90
2019-02-17T19:27:44.934Z,99.90
2019-02-17T19:30:15.221Z,99.90
2019-02-17T19:32:43.902Z,99.90
2019-02-17T19:35:14.471Z,99.90
2019-02-17T19:37:43.150Z,99.90
2019-02-17T19:40:13.385Z,99.90
2019-02-17T19:42:46.959Z,99.90
2019-02-17T19:45:17.695Z,99.90
2019-02-17T19:47:46.241Z,99.90
2019-02-17T19:50:15.678Z,99.90
2019-02-17T19:52:44.296Z,99.90
2019-02-17T19:55:13.698Z,99.90
2019-02-17T19:57:42.332Z,99.90
2019-02-17T20:00:18.974Z,99.90
2019-02-17T20:03:04.923Z,99.90
2019-02-17T20:05:36.173Z,99.90
2019-02-17T20:08:04.888Z,99.90
2019-02-17T20:10:33.548Z,99.90
2019-02-17T20:13:02.183Z,99.90
2019-02-17T20:15:32.706Z,99.90
2019-02-17T20:18:01.251Z,99.90
2019-02-17T20:20:29.848Z,99.90
2019-02-17T20:22:58.410Z,99.90
2019-02-17T20:25:26.995Z,99.90
2019-02-17T20:27:55.648Z,99.90
2019-02-17T20:30:24.302Z,99.90
2019-02-17T20:32:52.868Z,99.90
2019-02-17T20:35:21.568Z,99.90
2019-02-17T20:37:50.211Z,99.90
2019-02-17T20:40:19.138Z,99.90
2019-02-17T20:42:47.697Z,99.90
2019-02-17T20:45:16.360Z,99.90
2019-02-17T20:47:44.926Z,99.90
2019-02-17T20:50:15.916Z,99.90
2019-02-17T20:52:44.503Z,99.90
2019-02-17T20:55:13.613Z,99.90
2019-02-17T20:57:42.182Z,99.90
2019-02-17T21:00:15.116Z,99.90
2019-02-17T21:02:43.742Z,99.90
2019-02-17T21:05:12.319Z,99.90
2019-02-17T21:07:41.131Z,99.90
2019-02-17T21:10:12.770Z,99.90
2019-02-17T21:12:41.247Z,99.90
2019-02-17T21:15:14.052Z,99.90
2019-02-17T21:17:42.666Z,99.90
2019-02-17T21:20:11.381Z,99.90
2019-02-17T21:22:39.994Z,99.90
2019-02-17T21:25:13.083Z,99.90
2019-02-17T21:27:41.692Z,99.90
2019-02-17T21:30:13.070Z,99.90
2019-02-17T21:32:41.619Z,99.90
2019-02-17T21:35:16.929Z,99.90
2019-02-17T21:37:45.756Z,99.90
2019-02-17T21:40:14.829Z,99.90
2019-02-17T21:42:43.540Z,99.90
2019-02-17T21:45:13.214Z,99.90
2019-02-17T21:47:41.813Z,99.90
2019-02-17T21:50:12.409Z,99.90
2019-02-17T21:52:41.939Z,99.90
2019-02-17T21:55:13.171Z,99.90
2019-02-17T21:57:41.844Z,99.90
2019-02-17T22:00:17.515Z,99.90
2019-02-17T22:02:46.210Z,99.90
2019-02-17T22:05:14.934Z,99.90
2019-02-17T22:07:43.800Z,99.90
2019-02-17T22:10:14.328Z,99.90
2019-02-17T22:12:43.012Z,99.90
2019-02-17T22:15:14.723Z,99.90
2019-02-17T22:17:43.352Z,99.90
2019-02-17T22:20:12.373Z,99.90
2019-02-17T22:22:41.080Z,99.90
2019-02-17T22:25:10.603Z,99.90
2019-02-17T22:27:39.289Z,99.90
2019-02-17T22:30:12.378Z,99.90
2019-02-17T22:32:41.079Z,99.90
2019-02-17T22:35:09.848Z,99.90
2019-02-17T22:37:38.617Z,99.90
2019-02-17T22:40:12.434Z,99.90
2019-02-17T22:42:41.231Z,99.90
2019-02-17T22:45:11.248Z,99.90
2019-02-17T22:47:40.033Z,99.90
2019-02-17T22:50:11.641Z,99.90
2019-02-17T22:52:40.371Z,99.90
2019-02-17T22:55:10.776Z,99.90
2019-02-17T22:57:39.611Z,99.90
2019-02-17T23:00:19.926Z,99.90
2019-02-17T23:02:48.604Z,99.90
2019-02-17T23:05:17.259Z,99.90
2019-02-17T23:07:45.954Z,99.90
2019-02-17T23:10:14.683Z,99.90
2019-02-17T23:12:43.370Z,99.90
2019-02-17T23:15:12.174Z,99.90
2019-02-17T23:17:40.927Z,99.90
2019-02-17T23:20:09.611Z,99.90
2019-02-17T23:22:38.345Z,99.90
2019-02-17T23:25:08.870Z,99.90
2019-02-17T23:27:37.573Z,99.90
2019-02-17T23:30:08.209Z,99.90
2019-02-17T23:32:36.852Z,99.90
2019-02-17T23:35:25.065Z,99.90
2019-02-17T23:37:53.161Z,99.90
2019-02-17T23:40:26.318Z,99.90
2019-02-17T23:43:05.581Z,99.90
2019-02-17T23:48:15.450Z,99.90
2019-02-17T23:50:47.624Z,99.90
